createdAt,value
2023-03-26T00:02:17.802Z,3.40
2023-03-26T00:04:46.629Z,3.10
2023-03-26T00:07:16.268Z,1.60
2023-03-26T00:09:44.790Z,1.70
2023-03-26T00:12:18.873Z,3.30
2023-03-26T00:14:47.222Z,2.70
2023-03-26T00:17:15.673Z,2.50
2023-03-26T00:19:46.882Z,4.20
2023-03-26T00:24:46.200Z,2.20
2023-03-26T00:27:23.923Z,2.00
2023-03-26T00:29:52.403Z,2.90
2023-03-26T00:32:21.814Z,1.90
2023-03-26T00:35:01.751Z,2.70
2023-03-26T00:37:30.681Z,1.80
2023-03-26T00:40:07.332Z,3.90
2023-03-26T00:42:38.063Z,3.40
2023-03-26T00:45:09.983Z,2.10
2023-03-26T00:47:40.281Z,2.10
2023-03-26T00:50:15.469Z,1.80
2023-03-26T00:52:45.144Z,1.90
2023-03-26T00:55:16.343Z,3.50
2023-03-26T00:57:48.770Z,3.10
2023-03-26T01:00:18.163Z,4.10
2023-03-26T01:02:47.348Z,2.20
2023-03-26T01:05:42.835Z,1.70
2023-03-26T01:08:18.865Z,2.40
2023-03-26T01:10:51.626Z,3.50
2023-03-26T01:13:21.726Z,2.70
2023-03-26T01:15:51.311Z,2.70
2023-03-26T01:18:21.524Z,3.60
2023-03-26T01:20:49.917Z,2.50
2023-03-26T01:23:23.906Z,1.00
2023-03-26T01:26:04.110Z,1.30
2023-03-26T01:28:39.684Z,1.30
2023-03-26T01:31:20.248Z,2.10
2023-03-26T01:33:52.385Z,3.00
2023-03-26T01:36:28.301Z,1.60
2023-03-26T01:39:00.663Z,4.00
2023-03-26T01:41:31.821Z,2.50
2023-03-26T01:44:17.224Z,1.90
2023-03-26T01:46:46.200Z,2.20
2023-03-26T01:49:15.400Z,1.40
2023-03-26T01:51:43.642Z,2.10
2023-03-26T01:54:17.999Z,4.00
2023-03-26T01:57:18.304Z,3.50
2023-03-26T02:00:14.359Z,2.40
2023-03-26T02:02:58.000Z,1.40
2023-03-26T02:05:29.711Z,1.60
2023-03-26T02:08:38.178Z,1.30
2023-03-26T02:11:11.830Z,2.90
2023-03-26T02:13:45.639Z,2.10
2023-03-26T02:16:17.029Z,1.40
2023-03-26T02:18:51.521Z,1.50
2023-03-26T02:21:21.508Z,2.60
2023-03-26T02:23:50.929Z,1.30
2023-03-26T02:26:20.310Z,1.90
2023-03-26T02:28:59.181Z,1.70
2023-03-26T02:31:35.012Z,1.90
2023-03-26T02:34:04.278Z,2.60
2023-03-26T02:36:43.095Z,3.20
2023-03-26T02:39:12.422Z,2.80
2023-03-26T02:41:41.095Z,3.70
2023-03-26T02:44:12.913Z,3.40
2023-03-26T02:46:59.140Z,2.50
2023-03-26T02:49:43.401Z,1.70
2023-03-26T02:52:18.781Z,2.40
2023-03-26T02:54:50.695Z,1.60
2023-03-26T02:57:21.848Z,2.20
2023-03-26T03:00:14.393Z,2.20
2023-03-26T03:03:04.576Z,1.80
2023-03-26T03:05:33.379Z,1.80
2023-03-26T03:08:22.091Z,1.80
2023-03-26T03:11:19.249Z,2.30
2023-03-26T03:13:48.742Z,2.00
2023-03-26T03:16:20.190Z,3.80
2023-03-26T03:18:54.779Z,2.30
2023-03-26T03:21:32.598Z,2.90
2023-03-26T03:24:03.032Z,1.90
2023-03-26T03:26:36.639Z,2.10
2023-03-26T03:29:18.845Z,2.80
2023-03-26T03:31:47.718Z,2.50
2023-03-26T03:34:39.383Z,2.20
2023-03-26T03:37:08.091Z,2.60
2023-03-26T03:39:42.825Z,2.70
2023-03-26T03:42:12.333Z,2.30
2023-03-26T03:44:42.641Z,2.30
2023-03-26T03:47:20.497Z,2.00
2023-03-26T03:49:48.894Z,3.60
2023-03-26T03:52:18.234Z,2.30
2023-03-26T03:54:46.716Z,2.40
2023-03-26T03:57:46.266Z,3.10
2023-03-26T04:00:20.252Z,4.10
2023-03-26T04:02:56.432Z,6.60
2023-03-26T04:05:29.285Z,2.20
2023-03-26T04:07:57.604Z,3.30
2023-03-26T04:10:28.858Z,5.50
2023-03-26T04:13:25.841Z,3.30
2023-03-26T04:16:13.149Z,5.20
2023-03-26T04:18:41.982Z,4.60
2023-03-26T04:23:45.996Z,1.80
2023-03-26T04:26:33.895Z,2.40
2023-03-26T04:29:19.184Z,3.00
2023-03-26T04:34:24.514Z,3.60
2023-03-26T04:37:01.877Z,3.90
2023-03-26T04:39:34.373Z,5.60
2023-03-26T04:42:25.656Z,3.60
2023-03-26T04:45:11.296Z,2.90
2023-03-26T04:47:40.569Z,3.50
2023-03-26T04:57:52.377Z,2.80
2023-03-26T05:00:41.657Z,3.80
2023-03-26T05:03:13.418Z,6.30
2023-03-26T05:05:41.640Z,4.20
2023-03-26T05:08:11.588Z,4.30
2023-03-26T05:10:42.696Z,4.90
2023-03-26T05:13:16.524Z,4.80
2023-03-26T05:15:55.893Z,3.80
2023-03-26T05:18:40.507Z,3.90
2023-03-26T05:21:11.360Z,6.00
2023-03-26T05:23:40.408Z,4.10
2023-03-26T05:26:17.256Z,5.50
2023-03-26T05:28:45.846Z,4.70
2023-03-26T05:31:23.835Z,5.40
2023-03-26T05:33:55.989Z,3.50
2023-03-26T05:36:28.668Z,4.40
2023-03-26T05:39:30.076Z,5.60
2023-03-26T05:42:20.407Z,4.70
2023-03-26T05:45:27.034Z,5.00
2023-03-26T05:47:56.869Z,4.00
2023-03-26T05:50:26.306Z,4.30
2023-03-26T05:53:04.736Z,4.70
2023-03-26T05:56:02.381Z,4.30
2023-03-26T05:58:50.925Z,4.90
2023-03-26T06:01:39.849Z,5.10
2023-03-26T06:04:17.712Z,6.40
2023-03-26T06:07:16.929Z,3.40
2023-03-26T06:09:51.066Z,5.70
2023-03-26T06:12:19.430Z,5.00
2023-03-26T06:14:56.889Z,3.70
2023-03-26T06:17:36.303Z,4.20
2023-03-26T06:20:16.027Z,7.30
2023-03-26T06:22:47.283Z,6.60
2023-03-26T06:25:42.302Z,4.90
2023-03-26T06:28:17.275Z,5.00
2023-03-26T06:31:06.063Z,4.50
2023-03-26T06:34:22.250Z,4.50
2023-03-26T06:36:52.842Z,7.10
2023-03-26T06:39:47.971Z,5.20
2023-03-26T06:42:19.394Z,5.80
2023-03-26T06:45:25.624Z,8.70
2023-03-26T06:48:28.512Z,5.50
2023-03-26T06:51:17.043Z,2.70
2023-03-26T06:54:07.208Z,2.10
2023-03-26T06:56:54.056Z,2.90
2023-03-26T06:59:38.090Z,3.30
2023-03-26T07:02:24.589Z,3.40
2023-03-26T07:05:11.677Z,3.30
2023-03-26T07:07:59.654Z,3.10
2023-03-26T07:10:46.993Z,3.00
2023-03-26T07:13:47.789Z,3.00
2023-03-26T07:16:35.027Z,4.60
2023-03-26T07:19:09.457Z,4.90
2023-03-26T07:21:44.305Z,4.50
2023-03-26T07:24:32.718Z,3.10
2023-03-26T07:27:21.523Z,3.00
2023-03-26T07:29:58.746Z,4.30
2023-03-26T07:33:35.916Z,2.70
2023-03-26T07:37:05.876Z,4.40
2023-03-26T07:40:19.012Z,3.50
2023-03-26T07:43:22.463Z,4.60
2023-03-26T07:46:16.995Z,3.00
2023-03-26T07:48:55.742Z,5.10
2023-03-26T07:51:53.237Z,4.00
2023-03-26T07:54:44.464Z,7.80
2023-03-26T07:57:57.413Z,4.60
2023-03-26T08:00:54.124Z,2.70
2023-03-26T08:03:22.593Z,5.20
2023-03-26T08:06:12.844Z,3.80
2023-03-26T08:09:03.661Z,3.30
2023-03-26T08:12:06.788Z,5.60
2023-03-26T08:15:08.182Z,4.30
2023-03-26T08:17:57.271Z,3.20
2023-03-26T08:20:41.630Z,6.40
2023-03-26T08:23:50.326Z,3.40
2023-03-26T08:26:23.821Z,6.80
2023-03-26T08:29:19.792Z,2.40
2023-03-26T08:31:48.728Z,4.20
2023-03-26T08:34:16.808Z,2.80
2023-03-26T08:36:46.143Z,2.90
2023-03-26T08:39:14.418Z,1.10
2023-03-26T08:42:09.441Z,2.20
2023-03-26T08:45:16.327Z,2.00
2023-03-26T08:48:03.998Z,2.50
2023-03-26T08:50:45.098Z,1.40
2023-03-26T08:53:25.570Z,2.00
2023-03-26T08:56:31.052Z,2.50
2023-03-26T08:59:08.281Z,5.90
2023-03-26T09:01:54.460Z,2.70
2023-03-26T09:05:00.054Z,3.40
2023-03-26T09:07:36.670Z,4.90
2023-03-26T09:10:09.214Z,3.60
2023-03-26T09:13:02.432Z,1.90
2023-03-26T09:15:57.551Z,3.50
2023-03-26T09:18:50.956Z,4.10
2023-03-26T09:24:27.925Z,2.50
2023-03-26T09:27:00.447Z,2.90
2023-03-26T09:29:40.688Z,3.00
2023-03-26T09:32:23.096Z,3.60
2023-03-26T09:35:14.338Z,2.50
2023-03-26T09:37:59.069Z,4.30
2023-03-26T09:40:35.391Z,2.00
2023-03-26T09:43:29.011Z,3.60
2023-03-26T09:46:13.473Z,2.20
2023-03-26T09:48:54.253Z,1.40
2023-03-26T09:51:48.884Z,0.90
2023-03-26T09:54:45.056Z,0.90
2023-03-26T09:57:24.209Z,1.80
2023-03-26T09:59:57.684Z,1.90
2023-03-26T10:02:49.245Z,1.50
2023-03-26T10:05:20.718Z,1.80
2023-03-26T10:08:03.060Z,2.20
2023-03-26T10:11:00.388Z,3.90
2023-03-26T10:13:59.002Z,1.90
2023-03-26T10:16:34.297Z,1.00
2023-03-26T10:19:23.548Z,1.50
2023-03-26T10:22:06.391Z,1.50
2023-03-26T10:24:48.692Z,2.30
2023-03-26T10:27:59.010Z,10.70
2023-03-26T10:30:33.364Z,0.60
2023-03-26T10:33:22.483Z,1.40
2023-03-26T10:36:22.251Z,2.70
2023-03-26T10:38:54.404Z,23.40
2023-03-26T10:41:41.387Z,1.40
2023-03-26T10:44:12.645Z,1.50
2023-03-26T10:46:56.228Z,1.60
2023-03-26T10:49:36.046Z,5.00
2023-03-26T10:52:06.965Z,2.90
2023-03-26T10:54:40.611Z,0.50
2023-03-26T10:57:23.130Z,1.20
2023-03-26T10:59:54.063Z,2.80
2023-03-26T11:02:31.087Z,3.80
2023-03-26T11:05:23.151Z,4.30
2023-03-26T11:08:01.963Z,2.40
2023-03-26T11:10:56.815Z,3.00
2023-03-26T11:13:35.007Z,2.60
2023-03-26T11:16:11.227Z,4.70
2023-03-26T11:18:47.884Z,1.60
2023-03-26T11:21:32.704Z,1.60
2023-03-26T11:24:21.485Z,1.30
2023-03-26T11:26:57.787Z,1.50
2023-03-26T11:29:46.955Z,3.20
2023-03-26T11:32:22.360Z,3.60
2023-03-26T11:35:02.473Z,2.20
2023-03-26T11:37:42.732Z,1.00
2023-03-26T11:40:18.137Z,0.50
2023-03-26T11:42:49.977Z,1.00
2023-03-26T11:45:24.151Z,1.60
2023-03-26T11:52:57.534Z,5.30
2023-03-26T11:55:46.861Z,1.60
2023-03-26T11:58:52.347Z,3.40
2023-03-26T12:01:31.334Z,2.00
2023-03-26T12:04:11.266Z,2.20
2023-03-26T12:06:40.246Z,2.70
2023-03-26T12:09:17.549Z,1.80
2023-03-26T12:11:49.835Z,3.80
2023-03-26T12:14:25.471Z,1.50
2023-03-26T12:17:06.764Z,2.10
2023-03-26T12:19:46.935Z,1.50
2023-03-26T12:22:34.003Z,3.80
2023-03-26T12:25:24.758Z,1.90
2023-03-26T12:28:03.145Z,2.10
2023-03-26T12:30:35.336Z,1.30
2023-03-26T12:33:22.046Z,2.10
2023-03-26T12:35:50.858Z,2.40
2023-03-26T12:38:30.319Z,2.00
2023-03-26T12:44:42.801Z,2.20
2023-03-26T12:44:53.965Z,2.90
2023-03-26T12:48:00.036Z,2.50
2023-03-26T12:50:18.815Z,0.90
2023-03-26T13:00:01.277Z,1.10
2023-03-26T13:02:44.230Z,1.20
2023-03-26T13:05:24.071Z,1.40
2023-03-26T13:08:03.799Z,0.80
2023-03-26T13:11:07.045Z,3.10
2023-03-26T13:14:04.303Z,3.40
2023-03-26T13:16:42.485Z,4.90
2023-03-26T13:19:37.788Z,1.30
2023-03-26T13:22:24.739Z,4.30
2023-03-26T13:25:09.620Z,2.30
2023-03-26T13:28:03.185Z,5.80
2023-03-26T13:30:34.957Z,2.90
2023-03-26T13:36:22.348Z,4.30
2023-03-26T13:39:03.763Z,2.30
2023-03-26T13:41:56.550Z,3.30
2023-03-26T13:44:38.760Z,3.00
2023-03-26T13:47:40.564Z,0.80
2023-03-26T13:50:29.345Z,1.90
2023-03-26T13:53:07.014Z,1.60
2023-03-26T13:55:46.047Z,2.10
2023-03-26T13:58:34.248Z,1.10
2023-03-26T14:01:08.251Z,5.20
2023-03-26T14:03:55.718Z,4.10
2023-03-26T14:06:57.683Z,4.40
2023-03-26T14:09:38.347Z,4.00
2023-03-26T14:17:27.435Z,3.60
2023-03-26T14:20:24.224Z,3.00
2023-03-26T14:23:07.160Z,2.10
2023-03-26T14:25:49.699Z,4.70
2023-03-26T14:28:43.462Z,2.20
2023-03-26T14:31:41.124Z,2.30
2023-03-26T14:34:34.844Z,3.40
2023-03-26T14:37:27.764Z,6.30
2023-03-26T14:47:47.038Z,0.80
2023-03-26T14:50:42.601Z,1.00
2023-03-26T14:53:19.498Z,1.40
2023-03-26T14:55:56.738Z,3.20
2023-03-26T14:58:28.200Z,2.00
2023-03-26T15:01:28.340Z,2.90
2023-03-26T15:04:06.477Z,0.90
2023-03-26T15:07:01.276Z,1.10
2023-03-26T15:10:08.570Z,3.90
2023-03-26T15:13:21.958Z,3.10
2023-03-26T15:19:05.953Z,1.20
2023-03-26T15:21:52.831Z,4.10
2023-03-26T15:24:27.470Z,2.40
2023-03-26T15:27:04.633Z,1.30
2023-03-26T15:30:11.702Z,3.30
2023-03-26T15:32:52.796Z,2.30
2023-03-26T15:35:39.311Z,3.00
2023-03-26T15:38:32.878Z,2.90
2023-03-26T15:41:19.627Z,3.10
2023-03-26T15:49:17.546Z,1.30
2023-03-26T15:52:14.241Z,4.50
2023-03-26T15:54:49.131Z,2.90
2023-03-26T15:57:22.461Z,6.10
2023-03-26T16:00:17.314Z,2.80
2023-03-26T16:03:10.307Z,2.30
2023-03-26T16:05:56.541Z,3.00
2023-03-26T16:08:24.656Z,4.20
2023-03-26T16:11:00.196Z,4.40
2023-03-26T16:13:50.798Z,2.80
2023-03-26T16:16:24.189Z,3.00
2023-03-26T16:19:32.718Z,3.40
2023-03-26T16:22:01.569Z,4.80
2023-03-26T16:24:35.084Z,4.00
2023-03-26T16:27:15.898Z,10.40
2023-03-26T16:29:59.992Z,4.50
2023-03-26T16:32:36.078Z,5.20
2023-03-26T16:35:23.303Z,6.50
2023-03-26T16:38:13.977Z,10.00
2023-03-26T16:41:03.748Z,15.90
2023-03-26T16:43:41.058Z,13.60
2023-03-26T16:46:18.573Z,10.20
2023-03-26T16:52:03.029Z,8.50
2023-03-26T16:54:43.551Z,8.80
2023-03-26T16:57:27.793Z,10.60
2023-03-26T17:00:08.239Z,17.20
2023-03-26T17:02:57.008Z,7.20
2023-03-26T17:05:48.554Z,11.10
2023-03-26T17:08:35.568Z,8.70
2023-03-26T17:11:22.249Z,12.60
2023-03-26T17:13:54.547Z,13.10
2023-03-26T17:16:28.188Z,12.30
2023-03-26T17:19:16.448Z,8.80
2023-03-26T17:22:14.403Z,19.60
2023-03-26T17:24:59.858Z,15.80
2023-03-26T17:28:42.975Z,11.10
2023-03-26T17:31:35.631Z,16.80
2023-03-26T17:34:34.062Z,16.20
2023-03-26T17:37:12.702Z,18.70
2023-03-26T17:39:43.989Z,22.90
2023-03-26T17:42:17.019Z,17.60
2023-03-26T17:44:59.209Z,26.70
2023-03-26T17:47:34.913Z,25.00
2023-03-26T17:50:15.994Z,22.60
2023-03-26T17:52:50.091Z,25.40
2023-03-26T17:55:21.310Z,25.90
2023-03-26T17:57:54.531Z,31.40
2023-03-26T18:00:26.004Z,26.70
2023-03-26T18:02:57.464Z,23.80
2023-03-26T18:05:27.762Z,59.20
2023-03-26T18:15:46.755Z,33.70
2023-03-26T18:18:23.941Z,48.20
2023-03-26T18:20:58.023Z,59.60
2023-03-26T18:23:36.857Z,49.40
2023-03-26T18:26:14.259Z,85.50
2023-03-26T18:28:51.485Z,55.30
2023-03-26T18:31:26.372Z,39.70
2023-03-26T18:33:59.326Z,53.70
2023-03-26T18:36:30.843Z,71.40
2023-03-26T18:38:59.234Z,57.60
2023-03-26T18:41:32.333Z,208.90
2023-03-26T18:44:08.041Z,106.30
2023-03-26T18:46:45.871Z,46.20
2023-03-26T18:49:17.339Z,33.70
2023-03-26T18:51:56.766Z,27.10
2023-03-26T18:54:26.773Z,41.70
2023-03-26T18:56:55.184Z,33.80
2023-03-26T18:59:32.558Z,38.60
2023-03-26T19:02:04.632Z,18.50
2023-03-26T19:04:34.071Z,21.10
2023-03-26T19:07:04.585Z,22.50
2023-03-26T19:09:32.831Z,19.10
2023-03-26T19:12:07.068Z,20.60
2023-03-26T19:14:51.387Z,17.70
2023-03-26T19:17:30.924Z,20.50
2023-03-26T19:20:01.336Z,17.60
2023-03-26T19:30:29.725Z,19.40
2023-03-26T19:33:18.034Z,20.10
2023-03-26T19:35:51.996Z,17.20
2023-03-26T19:38:23.645Z,15.70
2023-03-26T19:40:54.611Z,18.90
2023-03-26T19:43:28.649Z,26.10
2023-03-26T19:46:04.435Z,15.90
2023-03-26T19:48:46.930Z,18.00
2023-03-26T19:51:25.835Z,24.80
2023-03-26T19:53:56.640Z,21.50
2023-03-26T19:56:24.833Z,22.10
2023-03-26T19:58:55.540Z,23.00
2023-03-26T20:01:28.460Z,20.60
2023-03-26T20:04:00.730Z,17.70
2023-03-26T20:06:44.050Z,18.10
2023-03-26T20:09:14.183Z,20.20
2023-03-26T20:11:43.445Z,21.80
2023-03-26T20:14:26.437Z,23.60
2023-03-26T20:16:55.605Z,28.30
2023-03-26T20:19:28.383Z,31.50
2023-03-26T20:22:02.303Z,27.50
2023-03-26T20:24:30.723Z,20.60
2023-03-26T20:27:02.426Z,17.30
2023-03-26T20:29:33.036Z,19.20
2023-03-26T20:32:01.448Z,13.80
2023-03-26T20:34:30.390Z,18.70
2023-03-26T20:37:01.134Z,12.80
2023-03-26T20:39:31.144Z,14.90
2023-03-26T20:42:00.946Z,13.20
2023-03-26T20:44:30.837Z,19.40
2023-03-26T20:47:00.975Z,16.30
2023-03-26T20:49:32.555Z,18.40
2023-03-26T20:52:00.893Z,20.90
2023-03-26T20:54:31.694Z,26.30
2023-03-26T20:57:02.557Z,25.20
2023-03-26T20:59:33.326Z,23.20
2023-03-26T21:02:02.098Z,26.80
2023-03-26T21:04:30.599Z,23.90
2023-03-26T21:07:07.118Z,23.90
2023-03-26T21:09:41.575Z,23.00
2023-03-26T21:12:46.057Z,23.50
2023-03-26T21:15:23.910Z,26.90
2023-03-26T21:17:53.165Z,23.90
2023-03-26T21:20:22.178Z,23.80
2023-03-26T21:23:15.746Z,23.80
2023-03-26T21:25:44.280Z,22.20
2023-03-26T21:28:41.358Z,20.00
2023-03-26T21:31:22.184Z,25.80
2023-03-26T21:33:50.735Z,21.80
2023-03-26T21:36:19.926Z,24.80
2023-03-26T21:38:50.614Z,21.20
2023-03-26T21:41:45.099Z,21.10
2023-03-26T21:44:14.557Z,21.80
2023-03-26T21:46:43.762Z,22.30
2023-03-26T21:49:13.809Z,22.10
2023-03-26T21:51:43.374Z,20.70
2023-03-26T21:54:25.982Z,20.10
2023-03-26T21:57:23.623Z,22.10
2023-03-26T22:00:19.946Z,19.40
2023-03-26T22:03:09.104Z,20.90
2023-03-26T22:05:55.303Z,21.30
2023-03-26T22:08:32.354Z,24.60
2023-03-26T22:11:01.530Z,23.10
2023-03-26T22:13:31.139Z,22.50
2023-03-26T22:16:02.664Z,28.00
2023-03-26T22:18:31.069Z,23.50
2023-03-26T22:21:00.049Z,21.10
2023-03-26T22:23:34.420Z,18.40
2023-03-26T22:26:06.617Z,23.20
2023-03-26T22:28:36.641Z,17.30
2023-03-26T22:31:09.188Z,24.10
2023-03-26T22:33:40.146Z,21.10
2023-03-26T22:36:22.002Z,20.20
2023-03-26T22:38:53.987Z,19.00
2023-03-26T22:41:24.649Z,19.80
2023-03-26T22:43:56.833Z,19.30
2023-03-26T22:46:26.412Z,16.20
2023-03-26T22:48:55.970Z,18.40
2023-03-26T22:51:28.289Z,18.60
2023-03-26T22:53:57.475Z,15.40
2023-03-26T22:56:27.954Z,20.70
2023-03-26T22:58:56.288Z,16.80
2023-03-26T23:01:25.041Z,18.40
2023-03-26T23:03:54.239Z,20.20
2023-03-26T23:06:24.016Z,17.70
2023-03-26T23:08:52.400Z,20.20
2023-03-26T23:11:22.007Z,16.60
2023-03-26T23:13:51.367Z,17.90
2023-03-26T23:16:21.516Z,15.80
2023-03-26T23:18:50.439Z,16.00
2023-03-26T23:21:27.294Z,16.20
2023-03-26T23:23:55.485Z,17.40
2023-03-26T23:26:24.205Z,15.80
2023-03-26T23:28:52.729Z,17.90
2023-03-26T23:31:20.860Z,16.00
2023-03-26T23:33:50.510Z,18.90
2023-03-26T23:36:20.952Z,20.60
2023-03-26T23:38:49.806Z,21.90
2023-03-26T23:41:21.714Z,19.50
2023-03-26T23:43:55.805Z,18.30
2023-03-26T23:46:31.033Z,19.10
2023-03-26T23:49:02.492Z,20.00
2023-03-26T23:51:33.934Z,18.60
2023-03-26T23:54:02.949Z,16.90
2023-03-26T23:56:33.608Z,16.50
2023-03-26T23:59:06.996Z,14.60
